createdAt,value
2023-05-14T00:01:28.112Z,5.47
2023-05-14T00:03:54.793Z,6.30
2023-05-14T00:06:21.477Z,6.50
2023-05-14T00:08:47.866Z,6.35
2023-05-14T00:11:14.381Z,6.18
2023-05-14T00:13:40.829Z,6.25
2023-05-14T00:16:07.331Z,5.25
2023-05-14T00:18:34.009Z,6.32
2023-05-14T00:21:00.590Z,6.10
2023-05-14T00:23:26.988Z,6.47
2023-05-14T00:25:53.516Z,6.80
2023-05-14T00:28:20.689Z,6.05
2023-05-14T00:30:48.112Z,7.15
2023-05-14T00:33:15.552Z,5.90
2023-05-14T00:35:42.154Z,6.18
2023-05-14T00:38:09.761Z,6.18
2023-05-14T00:40:36.340Z,5.95
2023-05-14T00:43:02.848Z,5.78
2023-05-14T00:45:31.910Z,6.43
2023-05-14T00:47:58.584Z,5.90
2023-05-14T00:50:25.898Z,6.50
2023-05-14T00:52:53.265Z,6.28
2023-05-14T00:55:20.179Z,5.57
2023-05-14T00:57:46.658Z,5.93
2023-05-14T01:00:13.514Z,7.00
2023-05-14T01:02:40.024Z,6.38
2023-05-14T01:05:08.398Z,6.35
2023-05-14T01:08:07.565Z,5.45
2023-05-14T01:11:03.524Z,5.50
2023-05-14T01:13:44.040Z,5.57
2023-05-14T01:16:14.300Z,6.28
2023-05-14T01:18:43.671Z,5.47
2023-05-14T01:21:34.280Z,7.03
2023-05-14T01:24:00.981Z,5.70
2023-05-14T01:26:28.046Z,5.40
2023-05-14T01:29:00.102Z,6.28
2023-05-14T01:31:28.697Z,5.38
2023-05-14T01:34:00.278Z,5.82
2023-05-14T01:36:28.550Z,9.02
2023-05-14T01:38:56.361Z,6.72
2023-05-14T01:41:25.345Z,6.28
2023-05-14T01:43:52.275Z,5.55
2023-05-14T01:46:19.616Z,6.53
2023-05-14T01:48:46.300Z,6.25
2023-05-14T01:51:14.578Z,6.35
2023-05-14T01:53:41.622Z,6.03
2023-05-14T01:56:08.079Z,5.95
2023-05-14T01:58:34.598Z,5.65
2023-05-14T02:01:01.076Z,5.57
2023-05-14T02:03:27.666Z,6.30
2023-05-14T02:05:54.256Z,6.28
2023-05-14T02:08:21.171Z,5.78
2023-05-14T02:10:48.063Z,5.57
2023-05-14T02:13:14.677Z,5.22
2023-05-14T02:15:41.124Z,6.28
2023-05-14T02:18:07.745Z,7.22
2023-05-14T02:20:34.369Z,6.10
2023-05-14T02:23:01.894Z,6.45
2023-05-14T02:25:28.351Z,5.70
2023-05-14T02:27:54.831Z,6.25
2023-05-14T02:32:48.335Z,7.50
2023-05-14T02:35:14.868Z,5.80
2023-05-14T02:37:41.383Z,5.97
2023-05-14T02:40:08.586Z,5.68
2023-05-14T02:42:35.558Z,6.07
2023-05-14T02:45:02.013Z,5.63
2023-05-14T02:47:28.633Z,6.32
2023-05-14T02:49:55.085Z,6.38
2023-05-14T02:52:21.635Z,6.07
2023-05-14T02:54:48.179Z,5.85
2023-05-14T02:57:14.650Z,5.43
2023-05-14T02:59:41.434Z,5.55
2023-05-14T03:02:08.464Z,6.15
2023-05-14T03:04:35.552Z,5.38
2023-05-14T03:07:01.968Z,6.25
2023-05-14T03:09:28.463Z,5.80
2023-05-14T03:11:55.025Z,6.32
2023-05-14T03:14:21.472Z,6.22
2023-05-14T03:16:48.086Z,6.18
2023-05-14T03:19:14.625Z,5.95
2023-05-14T03:21:42.488Z,5.50
2023-05-14T03:24:09.042Z,6.35
2023-05-14T03:26:35.632Z,5.47
2023-05-14T03:29:02.402Z,6.40
2023-05-14T03:31:28.913Z,5.80
2023-05-14T03:33:56.379Z,6.22
2023-05-14T03:36:23.235Z,5.97
2023-05-14T03:38:49.692Z,5.80
2023-05-14T03:41:17.858Z,5.65
2023-05-14T03:43:44.351Z,5.80
2023-05-14T03:46:10.768Z,5.20
2023-05-14T03:48:37.216Z,6.25
2023-05-14T03:51:04.819Z,6.05
2023-05-14T03:53:31.272Z,6.30
2023-05-14T03:58:39.117Z,6.28
2023-05-14T04:01:05.837Z,5.57
2023-05-14T04:03:32.632Z,6.18
2023-05-14T04:06:00.505Z,5.70
2023-05-14T04:08:26.951Z,6.28
2023-05-14T04:10:56.041Z,6.82
2023-05-14T04:13:23.011Z,5.75
2023-05-14T04:15:49.604Z,5.35
2023-05-14T04:18:17.166Z,5.57
2023-05-14T04:20:43.837Z,5.88
2023-05-14T04:23:10.646Z,5.13
2023-05-14T04:25:37.111Z,5.78
2023-05-14T04:28:03.706Z,5.28
2023-05-14T04:30:30.327Z,5.07
2023-05-14T04:32:56.920Z,4.75
2023-05-14T04:35:25.200Z,5.05
2023-05-14T04:37:52.197Z,4.88
2023-05-14T04:40:19.263Z,4.72
2023-05-14T04:42:45.730Z,4.72
2023-05-14T04:45:13.648Z,4.68
2023-05-14T04:47:40.397Z,4.53
2023-05-14T04:50:09.182Z,4.97
2023-05-14T04:52:35.738Z,4.70
2023-05-14T04:55:02.179Z,4.68
2023-05-14T04:57:28.689Z,4.65
2023-05-14T04:59:55.144Z,4.40
2023-05-14T05:02:21.756Z,4.93
2023-05-14T05:04:48.216Z,4.57
2023-05-14T05:07:14.736Z,4.25
2023-05-14T05:09:43.095Z,4.50
2023-05-14T05:12:09.734Z,4.28
2023-05-14T05:14:36.198Z,4.10
2023-05-14T05:17:02.671Z,4.70
2023-05-14T05:19:39.558Z,4.30
2023-05-14T05:22:10.302Z,4.25
2023-05-14T05:24:36.764Z,4.00
2023-05-14T05:27:03.546Z,4.13
2023-05-14T05:29:30.086Z,4.35
2023-05-14T05:31:56.630Z,4.55
2023-05-14T05:34:23.202Z,3.72
2023-05-14T05:36:49.655Z,3.83
2023-05-14T05:39:16.128Z,3.95
2023-05-14T05:41:43.538Z,3.88
2023-05-14T05:44:10.102Z,4.00
2023-05-14T05:46:36.689Z,4.45
2023-05-14T05:49:03.215Z,4.13
2023-05-14T05:51:30.189Z,4.50
2023-05-14T05:53:56.651Z,4.20
2023-05-14T05:56:23.066Z,3.80
2023-05-14T05:58:49.466Z,4.90
2023-05-14T06:01:15.930Z,3.85
2023-05-14T06:03:42.395Z,3.95
2023-05-14T06:06:08.913Z,4.65
2023-05-14T06:08:35.480Z,3.47
2023-05-14T06:11:02.092Z,4.55
2023-05-14T06:13:28.560Z,3.95
2023-05-14T06:15:54.952Z,4.25
2023-05-14T06:18:21.361Z,4.07
2023-05-14T06:20:47.812Z,3.40
2023-05-14T06:23:14.248Z,4.10
2023-05-14T06:25:40.945Z,3.75
2023-05-14T06:28:07.395Z,3.95
2023-05-14T06:30:33.853Z,3.53
2023-05-14T06:33:00.636Z,3.17
2023-05-14T06:35:27.123Z,3.65
2023-05-14T06:37:53.621Z,3.20
2023-05-14T06:40:20.284Z,3.33
2023-05-14T06:42:46.722Z,3.50
2023-05-14T06:45:13.542Z,3.45
2023-05-14T06:47:40.366Z,3.40
2023-05-14T06:50:08.832Z,3.50
2023-05-14T06:52:37.023Z,3.17
2023-05-14T06:55:03.678Z,3.78
2023-05-14T06:57:31.480Z,3.75
2023-05-14T06:59:57.970Z,3.67
2023-05-14T07:02:26.091Z,3.63
2023-05-14T07:04:52.574Z,3.47
2023-05-14T07:07:21.046Z,3.55
2023-05-14T07:09:47.969Z,3.03
2023-05-14T07:12:14.615Z,3.15
2023-05-14T07:14:41.123Z,3.88
2023-05-14T07:17:07.618Z,3.33
2023-05-14T07:19:41.426Z,4.07
2023-05-14T07:22:07.896Z,2.42
2023-05-14T07:24:34.494Z,3.38
2023-05-14T07:27:01.859Z,2.95
2023-05-14T07:29:30.090Z,2.95
2023-05-14T07:31:58.848Z,2.45
2023-05-14T07:34:30.522Z,3.08
2023-05-14T07:37:03.866Z,2.80
2023-05-14T07:43:00.829Z,2.95
2023-05-14T07:45:27.753Z,3.15
2023-05-14T07:47:54.685Z,3.40
2023-05-14T07:50:22.361Z,3.38
2023-05-14T07:52:49.382Z,3.65
2023-05-14T07:55:15.963Z,4.25
2023-05-14T07:57:42.414Z,3.88
2023-05-14T08:00:09.297Z,3.28
2023-05-14T08:02:42.515Z,3.80
2023-05-14T08:05:10.465Z,4.40
2023-05-14T08:07:38.263Z,3.72
2023-05-14T08:10:06.668Z,3.90
2023-05-14T08:12:41.110Z,3.88
2023-05-14T08:15:20.104Z,3.70
2023-05-14T08:18:11.955Z,3.75
2023-05-14T08:21:05.837Z,5.25
2023-05-14T08:23:37.447Z,3.53
2023-05-14T08:26:03.935Z,3.55
2023-05-14T08:28:30.459Z,3.80
2023-05-14T08:30:56.971Z,3.90
2023-05-14T08:33:23.476Z,4.57
2023-05-14T08:35:53.210Z,4.05
2023-05-14T08:38:19.624Z,3.20
2023-05-14T08:40:53.751Z,3.25
2023-05-14T08:43:29.574Z,3.13
2023-05-14T08:48:49.963Z,2.50
2023-05-14T08:51:16.539Z,3.08
2023-05-14T08:53:43.487Z,2.92
2023-05-14T08:56:10.377Z,3.92
2023-05-14T08:58:37.972Z,2.95
2023-05-14T09:01:06.615Z,2.70
2023-05-14T09:03:34.907Z,3.25
2023-05-14T09:06:02.318Z,2.80
2023-05-14T09:08:29.304Z,4.15
2023-05-14T09:10:55.782Z,2.83
2023-05-14T09:13:22.316Z,2.35
2023-05-14T09:15:51.164Z,2.65
2023-05-14T09:18:17.692Z,2.60
2023-05-14T09:20:44.230Z,2.47
2023-05-14T09:23:10.781Z,1.98
2023-05-14T09:25:40.114Z,2.08
2023-05-14T09:30:37.005Z,2.38
2023-05-14T09:33:04.268Z,2.42
2023-05-14T09:35:32.340Z,1.90
2023-05-14T09:37:58.756Z,1.85
2023-05-14T09:40:25.484Z,2.60
2023-05-14T09:42:52.160Z,2.03
2023-05-14T09:45:18.726Z,2.83
2023-05-14T09:47:45.689Z,2.53
2023-05-14T09:50:12.946Z,2.67
2023-05-14T09:52:39.893Z,2.70
2023-05-14T09:55:07.931Z,2.60
2023-05-14T09:57:35.367Z,2.85
2023-05-14T10:00:02.036Z,2.45
2023-05-14T10:02:37.648Z,2.20
2023-05-14T10:05:06.352Z,2.25
2023-05-14T10:07:41.653Z,2.75
2023-05-14T10:10:12.477Z,2.28
2023-05-14T10:12:40.408Z,2.30
2023-05-14T10:15:16.250Z,2.42
2023-05-14T10:17:48.704Z,2.13
2023-05-14T10:20:18.927Z,1.90
2023-05-14T10:22:46.232Z,1.83
2023-05-14T10:25:12.947Z,1.95
2023-05-14T10:27:40.821Z,2.20
2023-05-14T10:30:14.442Z,1.92
2023-05-14T10:32:42.045Z,2.10
2023-05-14T10:35:20.473Z,2.38
2023-05-14T10:37:47.081Z,2.28
2023-05-14T10:40:14.130Z,2.45
2023-05-14T10:42:43.272Z,2.40
2023-05-14T10:45:14.206Z,1.70
2023-05-14T10:47:46.900Z,1.60
2023-05-14T10:50:15.047Z,3.42
2023-05-14T10:52:43.581Z,2.42
2023-05-14T10:55:13.858Z,2.22
2023-05-14T10:57:43.466Z,1.60
2023-05-14T11:00:11.211Z,2.40
2023-05-14T11:02:40.283Z,1.90
2023-05-14T11:05:09.328Z,2.30
2023-05-14T11:07:41.268Z,1.80
2023-05-14T11:10:12.579Z,1.88
2023-05-14T11:12:41.528Z,1.60
2023-05-14T11:15:13.945Z,1.67
2023-05-14T11:17:42.319Z,2.55
2023-05-14T11:20:09.935Z,1.42
2023-05-14T11:22:37.607Z,1.80
2023-05-14T11:25:04.979Z,1.65
2023-05-14T11:27:33.949Z,2.30
2023-05-14T11:30:01.045Z,2.55
2023-05-14T11:32:27.986Z,1.45
2023-05-14T11:34:54.624Z,1.85
2023-05-14T11:37:21.655Z,1.90
2023-05-14T11:39:53.551Z,1.95
2023-05-14T11:42:21.279Z,1.85
2023-05-14T11:44:49.675Z,2.33
2023-05-14T11:47:18.425Z,2.70
2023-05-14T11:49:45.316Z,2.83
2023-05-14T11:52:22.042Z,1.70
2023-05-14T11:54:50.671Z,1.48
2023-05-14T11:57:19.831Z,2.42
2023-05-14T11:59:49.582Z,1.90
2023-05-14T12:02:18.837Z,1.40
2023-05-14T12:04:53.953Z,1.67
2023-05-14T12:07:20.560Z,2.83
2023-05-14T12:09:49.766Z,2.30
2023-05-14T12:12:21.316Z,2.00
2023-05-14T12:14:49.461Z,1.80
2023-05-14T12:17:16.876Z,2.95
2023-05-14T12:19:45.755Z,2.38
2023-05-14T12:22:15.540Z,2.25
2023-05-14T12:24:43.892Z,1.95
2023-05-14T12:27:10.684Z,1.80
2023-05-14T12:29:41.157Z,1.75
2023-05-14T12:32:09.283Z,2.08
2023-05-14T12:34:39.012Z,1.73
2023-05-14T12:37:06.655Z,2.33
2023-05-14T12:39:34.278Z,1.65
2023-05-14T12:42:01.302Z,1.52
2023-05-14T12:44:28.138Z,1.73
2023-05-14T12:46:55.030Z,1.42
2023-05-14T12:49:21.500Z,1.67
2023-05-14T12:51:47.955Z,1.80
2023-05-14T12:54:15.779Z,1.58
2023-05-14T12:56:42.578Z,1.70
2023-05-14T12:59:09.569Z,2.45
2023-05-14T13:01:37.628Z,2.13
2023-05-14T13:04:05.448Z,1.75
2023-05-14T13:06:32.470Z,1.85
2023-05-14T13:09:01.657Z,1.73
2023-05-14T13:13:57.158Z,2.25
2023-05-14T13:16:23.665Z,1.50
2023-05-14T13:18:50.722Z,2.10
2023-05-14T13:21:17.198Z,2.28
2023-05-14T13:23:43.747Z,2.00
2023-05-14T13:26:10.281Z,1.50
2023-05-14T13:28:36.744Z,2.28
2023-05-14T13:31:14.489Z,2.22
2023-05-14T13:33:42.797Z,2.10
2023-05-14T13:36:10.468Z,2.28
2023-05-14T13:38:37.161Z,1.45
2023-05-14T13:41:03.752Z,2.00
2023-05-14T13:43:31.478Z,2.10
2023-05-14T13:46:00.522Z,2.40
2023-05-14T13:48:27.720Z,2.08
2023-05-14T13:50:54.818Z,1.98
2023-05-14T13:53:22.874Z,2.25
2023-05-14T13:55:49.555Z,1.35
2023-05-14T13:58:16.455Z,2.05
2023-05-14T14:00:43.018Z,1.60
2023-05-14T14:03:09.515Z,1.92
2023-05-14T14:05:38.446Z,1.70
2023-05-14T14:08:22.063Z,2.10
2023-05-14T14:10:51.443Z,1.60
2023-05-14T14:13:17.928Z,1.52
2023-05-14T14:15:45.637Z,2.15
2023-05-14T14:18:13.778Z,1.50
2023-05-14T14:20:40.503Z,1.73
2023-05-14T14:23:07.438Z,1.30
2023-05-14T14:25:33.959Z,2.22
2023-05-14T14:28:01.013Z,1.38
2023-05-14T14:30:27.520Z,1.35
2023-05-14T14:32:57.081Z,2.05
2023-05-14T14:37:53.370Z,1.70
2023-05-14T14:40:19.930Z,1.45
2023-05-14T14:42:46.426Z,1.75
2023-05-14T14:45:13.010Z,1.13
2023-05-14T14:47:43.803Z,1.55
2023-05-14T14:50:10.449Z,2.05
2023-05-14T14:52:36.984Z,1.92
2023-05-14T14:55:03.763Z,1.38
2023-05-14T14:57:36.153Z,1.40
2023-05-14T15:00:06.886Z,1.25
2023-05-14T15:02:33.636Z,1.63
2023-05-14T15:05:00.272Z,3.47
2023-05-14T15:07:26.680Z,1.55
2023-05-14T15:09:53.195Z,2.05
2023-05-14T15:12:19.681Z,1.70
2023-05-14T15:14:46.096Z,1.85
2023-05-14T15:17:13.012Z,1.50
2023-05-14T15:19:39.445Z,2.13
2023-05-14T15:22:05.908Z,1.60
2023-05-14T15:24:32.417Z,1.98
2023-05-14T15:27:00.588Z,2.33
2023-05-14T15:29:28.650Z,1.40
2023-05-14T15:31:55.201Z,1.60
2023-05-14T15:34:21.734Z,1.75
2023-05-14T15:36:49.569Z,5.05
2023-05-14T15:39:16.019Z,2.03
2023-05-14T15:41:42.531Z,1.95
2023-05-14T15:44:09.116Z,1.63
2023-05-14T15:46:37.808Z,3.03
2023-05-14T15:49:04.377Z,2.30
2023-05-14T15:51:31.793Z,2.60
2023-05-14T15:53:58.295Z,1.38
2023-05-14T15:56:24.799Z,1.80
2023-05-14T15:58:51.364Z,1.58
2023-05-14T16:01:19.034Z,1.70
2023-05-14T16:03:45.604Z,1.60
2023-05-14T16:06:13.935Z,2.28
2023-05-14T16:08:40.560Z,1.77
2023-05-14T16:11:07.783Z,1.50
2023-05-14T16:13:35.735Z,2.10
2023-05-14T16:16:02.376Z,1.67
2023-05-14T16:18:31.016Z,1.95
2023-05-14T16:21:00.030Z,1.83
2023-05-14T16:23:27.215Z,1.85
2023-05-14T16:25:53.677Z,1.70
2023-05-14T16:28:23.364Z,2.25
2023-05-14T16:33:16.375Z,1.90
2023-05-14T16:35:51.072Z,2.63
2023-05-14T16:38:19.135Z,2.58
2023-05-14T16:40:45.685Z,2.22
2023-05-14T16:43:12.801Z,2.10
2023-05-14T16:45:40.366Z,1.75
2023-05-14T16:48:07.272Z,1.77
2023-05-14T16:50:33.755Z,2.17
2023-05-14T16:53:00.307Z,1.77
2023-05-14T16:55:26.907Z,1.88
2023-05-14T16:57:53.432Z,2.15
2023-05-14T17:00:20.014Z,1.80
2023-05-14T17:02:49.059Z,2.42
2023-05-14T17:05:17.142Z,1.90
2023-05-14T17:07:43.617Z,1.67
2023-05-14T17:10:10.427Z,2.38
2023-05-14T17:12:36.929Z,2.15
2023-05-14T17:15:05.597Z,2.20
2023-05-14T17:17:33.635Z,2.17
2023-05-14T17:20:00.497Z,2.88
2023-05-14T17:22:27.283Z,2.70
2023-05-14T17:24:53.769Z,2.90
2023-05-14T17:27:20.246Z,2.95
2023-05-14T17:29:48.936Z,2.83
2023-05-14T17:32:17.602Z,2.72
2023-05-14T17:34:44.251Z,2.92
2023-05-14T17:37:10.820Z,2.67
2023-05-14T17:39:37.900Z,3.08
2023-05-14T17:42:04.723Z,4.97
2023-05-14T17:44:31.358Z,3.95
2023-05-14T17:47:47.820Z,3.20
2023-05-14T17:50:18.036Z,3.00
2023-05-14T17:52:46.012Z,3.05
2023-05-14T17:55:17.387Z,3.17
2023-05-14T17:57:44.188Z,5.13
2023-05-14T18:00:11.494Z,3.35
2023-05-14T18:02:38.741Z,2.72
2023-05-14T18:05:06.093Z,3.63
2023-05-14T18:07:32.744Z,3.13
2023-05-14T18:09:59.590Z,2.78
2023-05-14T18:12:27.294Z,3.30
2023-05-14T18:14:54.191Z,2.90
2023-05-14T18:17:20.775Z,3.17
2023-05-14T18:19:47.516Z,3.35
2023-05-14T18:22:14.239Z,3.65
2023-05-14T18:24:40.733Z,2.63
2023-05-14T18:27:10.243Z,3.08
2023-05-14T18:29:36.904Z,2.38
2023-05-14T18:32:03.665Z,2.35
2023-05-14T18:34:30.259Z,2.42
2023-05-14T18:36:58.615Z,2.63
2023-05-14T18:39:25.110Z,2.30
2023-05-14T18:41:51.975Z,2.60
2023-05-14T18:44:19.629Z,2.30
2023-05-14T18:46:46.263Z,2.08
2023-05-14T18:49:12.908Z,2.88
2023-05-14T18:51:40.128Z,1.77
2023-05-14T18:54:06.901Z,2.90
2023-05-14T18:56:36.789Z,2.20
2023-05-14T18:59:04.335Z,2.85
2023-05-14T19:01:31.250Z,2.25
2023-05-14T19:03:57.897Z,2.40
2023-05-14T19:06:24.390Z,2.60
2023-05-14T19:08:51.367Z,2.33
2023-05-14T19:11:20.246Z,2.17
2023-05-14T19:13:47.834Z,2.95
2023-05-14T19:16:14.497Z,3.10
2023-05-14T19:18:41.397Z,2.95
2023-05-14T19:21:08.138Z,2.30
2023-05-14T19:23:36.866Z,2.55
2023-05-14T19:26:04.004Z,3.00
2023-05-14T19:28:30.425Z,2.75
2023-05-14T19:30:57.158Z,2.65
2023-05-14T19:33:23.820Z,2.88
2023-05-14T19:35:50.990Z,2.83
2023-05-14T19:38:17.802Z,2.95
2023-05-14T19:40:45.111Z,2.55
2023-05-14T19:43:12.018Z,2.60
2023-05-14T19:45:39.571Z,3.40
2023-05-14T19:48:06.561Z,2.20
2023-05-14T19:50:33.755Z,2.40
2023-05-14T19:53:01.024Z,2.20
2023-05-14T19:55:27.760Z,2.80
2023-05-14T19:57:54.366Z,2.70
2023-05-14T20:03:10.398Z,2.63
2023-05-14T20:05:53.334Z,2.25
2023-05-14T20:08:33.485Z,2.90
2023-05-14T20:11:00.132Z,2.30
2023-05-14T20:13:26.602Z,2.55
2023-05-14T20:15:55.037Z,2.65
2023-05-14T20:18:22.133Z,2.60
2023-05-14T20:20:50.347Z,2.53
2023-05-14T20:23:16.799Z,2.90
2023-05-14T20:25:44.225Z,3.20
2023-05-14T20:28:10.897Z,2.90
2023-05-14T20:30:37.510Z,3.22
2023-05-14T20:33:04.189Z,2.80
2023-05-14T20:35:31.123Z,3.33
2023-05-14T20:37:57.580Z,3.03
2023-05-14T20:40:24.642Z,2.78
2023-05-14T20:42:51.532Z,4.20
2023-05-14T20:45:18.127Z,4.78
2023-05-14T20:47:44.776Z,3.38
2023-05-14T20:50:11.641Z,3.45
2023-05-14T20:52:38.110Z,3.03
2023-05-14T20:55:05.042Z,3.33
2023-05-14T20:57:31.454Z,2.67
2023-05-14T20:59:57.887Z,3.47
2023-05-14T21:02:24.684Z,3.13
2023-05-14T21:04:51.444Z,2.85
2023-05-14T21:07:18.083Z,2.92
2023-05-14T21:09:46.487Z,3.22
2023-05-14T21:12:13.011Z,2.80
2023-05-14T21:14:39.509Z,3.20
2023-05-14T21:17:07.103Z,3.20
2023-05-14T21:19:33.591Z,3.00
2023-05-14T21:22:00.049Z,2.97
2023-05-14T21:24:26.568Z,2.90
2023-05-14T21:26:53.697Z,3.35
2023-05-14T21:29:20.455Z,3.33
2023-05-14T21:31:48.535Z,3.10
2023-05-14T21:34:15.072Z,2.80
2023-05-14T21:36:41.618Z,2.88
2023-05-14T21:39:08.028Z,3.08
2023-05-14T21:41:34.542Z,3.45
2023-05-14T21:44:01.073Z,2.70
2023-05-14T21:46:28.906Z,2.67
2023-05-14T21:48:56.426Z,2.95
2023-05-14T21:51:22.958Z,2.78
2023-05-14T21:53:49.679Z,3.15
2023-05-14T21:56:16.256Z,2.95
2023-05-14T21:58:42.722Z,3.47
2023-05-14T22:01:11.751Z,2.97
2023-05-14T22:03:38.429Z,3.60
2023-05-14T22:06:05.533Z,3.05
2023-05-14T22:08:32.270Z,3.25
2023-05-14T22:10:58.808Z,3.15
2023-05-14T22:13:25.222Z,3.70
2023-05-14T22:16:01.223Z,3.80
2023-05-14T22:18:36.560Z,3.42
2023-05-14T22:21:03.506Z,4.30
2023-05-14T22:23:35.767Z,4.10
2023-05-14T22:26:02.313Z,3.45
2023-05-14T22:28:28.821Z,3.85
2023-05-14T22:30:56.379Z,3.72
2023-05-14T22:33:22.916Z,4.25
2023-05-14T22:35:49.358Z,4.63
2023-05-14T22:38:15.900Z,3.72
2023-05-14T22:40:42.519Z,3.85
2023-05-14T22:43:08.915Z,4.13
2023-05-14T22:45:36.579Z,3.67
2023-05-14T22:48:03.133Z,4.20
2023-05-14T22:50:29.616Z,4.40
2023-05-14T22:52:56.186Z,5.70
2023-05-14T22:55:23.090Z,4.47
2023-05-14T22:57:49.709Z,4.30
2023-05-14T23:00:16.506Z,4.40
2023-05-14T23:02:43.034Z,5.63
2023-05-14T23:05:09.786Z,7.22
2023-05-14T23:07:36.362Z,4.75
2023-05-14T23:10:02.859Z,4.68
2023-05-14T23:12:29.421Z,4.85
2023-05-14T23:14:56.009Z,5.05
2023-05-14T23:17:22.658Z,4.97
2023-05-14T23:19:49.511Z,4.40
2023-05-14T23:22:16.136Z,4.47
2023-05-14T23:24:42.621Z,4.93
2023-05-14T23:27:09.294Z,4.75
2023-05-14T23:29:35.750Z,4.63
2023-05-14T23:32:02.438Z,4.53
2023-05-14T23:34:28.892Z,4.82
2023-05-14T23:36:55.704Z,5.40
2023-05-14T23:39:22.505Z,5.15
2023-05-14T23:41:49.001Z,4.75
2023-05-14T23:44:16.153Z,5.40
2023-05-14T23:46:42.718Z,4.85
2023-05-14T23:49:09.240Z,4.93
2023-05-14T23:51:36.878Z,5.07
2023-05-14T23:54:03.607Z,4.90
2023-05-14T23:56:30.192Z,5.53
2023-05-14T23:58:56.761Z,5.57
